Time;durP1;ratioP1;P1;durP2;ratioP2;P2;SDS_P1;SDS_P2;PMS_P1;PMS_P2;Temp;Humidity;BMP_temperature;BMP_pressure;BME280_temperature;BME280_humidity;BME280_pressure;Samples;Min_cycle;Max_cycle;Signal;HPM_P1;HPM_P2
2021/12/16 00:08:58;;;;;;;20.58;9.82;;;7.80;99.90;;;;;;5100830;28;20047;-58
2021/12/16 00:33:36;;;;;;;26.00;10.70;;;7.90;99.90;;;;;;5099566;28;20745;-58
2021/12/16 00:36:05;;;;;;;27.73;11.98;;;7.90;99.90;;;;;;5100969;28;20040;-58
2021/12/16 00:38:31;;;;;;;24.60;11.52;;;7.90;99.90;;;;;;5100517;28;20048;-58
2021/12/16 00:40:59;;;;;;;28.88;12.68;;;7.90;99.90;;;;;;5099357;28;20044;-58
2021/12/16 00:43:41;;;;;;;30.98;11.13;;;7.90;99.90;;;;;;5100555;28;20052;-58
2021/12/16 00:54:11;;;;;;;31.97;12.07;;;7.90;99.90;;;;;;5080074;28;20052;-58
2021/12/16 00:56:45;;;;;;;24.33;10.18;;;7.90;99.90;;;;;;5078881;28;20416;-59
2021/12/16 00:59:13;;;;;;;28.13;12.35;;;8.00;99.90;;;;;;5079945;28;20053;-58
2021/12/16 01:01:50;;;;;;;22.95;11.15;;;7.90;99.90;;;;;;5078968;28;20052;-58
2021/12/16 01:35:17;;;;;;;24.73;10.20;;;8.00;99.90;;;;;;5078999;28;20052;-58
2021/12/16 01:51:19;;;;;;;20.70;8.68;;;8.00;99.90;;;;;;5087870;28;20093;-57
2021/12/16 01:59:03;;;;;;;21.73;9.45;;;8.00;99.90;;;;;;5098688;28;20126;-58
2021/12/16 02:01:32;;;;;;;20.50;10.00;;;8.10;99.90;;;;;;5099611;28;20055;-58
2021/12/16 02:04:10;;;;;;;22.42;9.32;;;8.10;99.90;;;;;;5098506;28;20471;-58
2021/12/16 02:06:57;;;;;;;22.73;9.25;;;8.10;99.90;;;;;;5099151;28;20435;-58
2021/12/16 02:09:42;;;;;;;22.38;9.85;;;8.10;99.90;;;;;;5098494;28;20040;-58
2021/12/16 02:36:37;;;;;;;23.00;9.25;;;8.10;99.90;;;;;;5098571;28;20131;-57
2021/12/16 02:39:11;;;;;;;21.95;9.73;;;8.10;99.90;;;;;;5098205;28;20047;-58
2021/12/16 02:41:40;;;;;;;19.40;9.15;;;8.10;99.90;;;;;;5098596;28;20127;-58
2021/12/16 02:44:17;;;;;;;21.15;9.70;;;8.10;99.90;;;;;;5098714;28;20450;-58
2021/12/16 02:49:44;;;;;;;24.98;9.60;;;7.90;99.90;;;;;;5098540;28;20411;-59
2021/12/16 02:52:11;;;;;;;23.60;9.45;;;8.00;99.90;;;;;;5079382;28;20054;-59
2021/12/16 02:54:37;;;;;;;19.00;9.95;;;7.90;99.90;;;;;;5077884;28;20040;-59
2021/12/16 02:57:05;;;;;;;19.75;9.25;;;7.80;99.90;;;;;;5078539;28;20417;-59
2021/12/16 02:59:32;;;;;;;28.10;9.68;;;7.80;99.90;;;;;;5078046;28;20106;-58
2021/12/16 03:02:06;;;;;;;19.58;8.57;;;7.80;99.90;;;;;;5078258;28;20427;-58
2021/12/16 03:04:32;;;;;;;23.27;8.40;;;7.70;99.90;;;;;;5077663;28;20048;-58
2021/12/16 03:07:00;;;;;;;22.65;9.07;;;7.60;99.90;;;;;;5078279;28;20768;-58
2021/12/16 03:10:31;;;;;;;20.50;8.45;;;7.60;99.90;;;;;;5077859;28;20440;-58
2021/12/16 03:14:59;;;;;;;22.42;8.00;;;7.50;99.90;;;;;;5081917;28;20405;-58
2021/12/16 03:17:35;;;;;;;23.95;8.75;;;7.40;99.90;;;;;;5081397;28;20483;-58
2021/12/16 03:20:12;;;;;;;18.88;7.97;;;7.40;99.90;;;;;;5081709;28;20087;-58
2021/12/16 03:23:14;;;;;;;20.85;8.27;;;7.40;99.90;;;;;;5081987;28;20048;-58
2021/12/16 03:26:38;;;;;;;22.73;8.88;;;7.40;99.90;;;;;;5081442;28;20795;-58
2021/12/16 03:38:53;;;;;;;21.25;7.75;;;7.20;99.90;;;;;;5080578;28;20036;-57
2021/12/16 03:41:20;;;;;;;20.42;8.77;;;7.20;99.90;;;;;;5081384;28;20070;-58
2021/12/16 03:43:47;;;;;;;19.88;8.13;;;7.10;99.90;;;;;;5081148;28;20052;-57
2021/12/16 03:46:26;;;;;;;21.85;8.18;;;7.10;99.90;;;;;;5081170;28;20037;-57
2021/12/16 03:49:01;;;;;;;22.85;8.38;;;7.10;99.90;;;;;;5081470;28;20070;-59
2021/12/16 03:51:39;;;;;;;18.42;8.30;;;7.00;99.90;;;;;;5092158;28;20040;-58
2021/12/16 03:54:18;;;;;;;20.35;8.63;;;7.00;99.90;;;;;;5101305;28;20577;-58
2021/12/16 03:56:45;;;;;;;19.05;8.38;;;6.90;99.90;;;;;;5101421;28;20059;-58
2021/12/16 03:59:15;;;;;;;18.50;8.15;;;6.90;99.90;;;;;;5100907;28;20069;-57
2021/12/16 04:01:41;;;;;;;16.58;7.82;;;6.90;99.90;;;;;;5101347;28;20051;-58
2021/12/16 04:04:07;;;;;;;21.13;8.80;;;6.80;99.90;;;;;;5100771;28;20046;-58
2021/12/16 04:06:36;;;;;;;15.35;8.65;;;6.80;99.90;;;;;;5101199;28;20044;-59
2021/12/16 04:09:06;;;;;;;21.55;8.50;;;6.80;99.90;;;;;;5100637;28;20981;-59
2021/12/16 04:11:39;;;;;;;26.05;9.40;;;6.70;99.90;;;;;;5101150;28;20072;-59
2021/12/16 04:14:08;;;;;;;17.98;8.25;;;6.60;99.90;;;;;;5101020;28;20040;-58
2021/12/16 04:16:39;;;;;;;18.10;7.82;;;6.60;99.90;;;;;;5100983;28;20040;-57
2021/12/16 04:19:09;;;;;;;19.27;8.10;;;6.60;99.90;;;;;;5101002;28;20052;-58
2021/12/16 04:21:38;;;;;;;24.30;8.40;;;6.60;99.90;;;;;;5099014;28;20048;-58
2021/12/16 04:24:04;;;;;;;21.23;8.63;;;6.50;99.90;;;;;;5099345;28;20044;-58
2021/12/16 04:26:31;;;;;;;22.27;9.20;;;6.50;99.90;;;;;;5100703;28;20051;-58
2021/12/16 04:28:58;;;;;;;18.10;8.75;;;6.50;99.90;;;;;;5100608;28;20121;-57
2021/12/16 04:31:25;;;;;;;17.27;8.40;;;6.40;99.90;;;;;;5101256;28;20186;-56
2021/12/16 04:33:51;;;;;;;21.33;9.15;;;6.50;99.90;;;;;;5100476;28;20079;-57
2021/12/16 04:36:18;;;;;;;19.10;8.80;;;6.50;99.90;;;;;;5100617;28;20043;-58
2021/12/16 04:38:46;;;;;;;20.65;9.55;;;6.50;99.90;;;;;;5100263;28;20087;-58
2021/12/16 04:41:13;;;;;;;19.55;8.80;;;6.40;99.90;;;;;;5100414;28;20068;-58
2021/12/16 04:43:45;;;;;;;15.88;8.48;;;6.40;99.90;;;;;;5100030;28;20040;-57
2021/12/16 04:46:18;;;;;;;16.58;7.75;;;6.40;99.90;;;;;;5098876;28;20055;-57
2021/12/16 04:48:47;;;;;;;17.58;8.23;;;6.30;99.90;;;;;;5099203;28;20079;-58
2021/12/16 04:51:15;;;;;;;18.40;7.50;;;6.40;99.90;;;;;;5089917;28;20024;-56
2021/12/16 04:53:42;;;;;;;19.30;9.23;;;6.30;99.90;;;;;;5080105;28;20116;-58
2021/12/16 04:56:11;;;;;;;15.30;8.27;;;6.20;99.90;;;;;;5077925;28;20059;-57
2021/12/16 04:58:41;;;;;;;17.50;8.45;;;6.20;99.90;;;;;;5079741;28;20056;-58
2021/12/16 05:01:07;;;;;;;19.63;9.70;;;6.30;99.90;;;;;;5079914;28;20052;-58
2021/12/16 05:03:33;;;;;;;19.63;8.07;;;6.20;99.90;;;;;;5079623;28;20048;-58
2021/12/16 05:06:00;;;;;;;18.52;8.40;;;6.20;99.90;;;;;;5078388;28;20400;-57
2021/12/16 05:08:26;;;;;;;17.48;8.00;;;6.20;99.90;;;;;;5077740;28;20044;-59
2021/12/16 05:10:55;;;;;;;17.83;9.38;;;6.10;99.90;;;;;;5079408;28;20082;-59
2021/12/16 05:13:25;;;;;;;18.25;9.98;;;6.20;99.90;;;;;;5078930;28;20040;-58
2021/12/16 05:15:53;;;;;;;18.40;8.20;;;6.20;99.90;;;;;;5078070;28;20127;-59
2021/12/16 05:18:24;;;;;;;17.67;8.35;;;6.20;99.90;;;;;;5078368;28;20114;-57
2021/12/16 05:20:51;;;;;;;16.85;8.15;;;6.20;99.90;;;;;;5078747;28;20053;-58
2021/12/16 05:28:40;;;;;;;19.23;7.97;;;6.10;99.90;;;;;;5078984;28;20052;-58
2021/12/16 05:31:07;;;;;;;20.00;8.00;;;6.10;99.90;;;;;;5077775;28;20051;-58
2021/12/16 05:33:33;;;;;;;15.23;7.90;;;6.00;99.90;;;;;;5078596;28;20131;-58
2021/12/16 05:35:59;;;;;;;16.92;8.50;;;6.10;99.90;;;;;;5077466;28;20036;-57
2021/12/16 05:38:27;;;;;;;14.35;7.43;;;6.10;99.90;;;;;;5078539;28;20080;-58
2021/12/16 05:40:53;;;;;;;21.65;8.23;;;6.00;99.90;;;;;;5078791;28;20070;-58
2021/12/16 05:43:25;;;;;;;19.10;8.18;;;6.00;99.90;;;;;;5078302;28;20044;-58
2021/12/16 05:45:55;;;;;;;15.38;7.75;;;6.00;99.90;;;;;;5078635;28;20044;-57
2021/12/16 05:48:23;;;;;;;16.50;7.57;;;6.00;99.90;;;;;;5079232;28;20037;-58
2021/12/16 05:50:53;;;;;;;13.50;7.30;;;6.00;99.90;;;;;;5084730;28;20085;-58
2021/12/16 05:53:21;;;;;;;12.35;7.35;;;6.00;99.90;;;;;;5099337;28;20105;-57
2021/12/16 05:55:48;;;;;;;15.60;7.78;;;6.00;99.90;;;;;;5098106;28;20079;-58
2021/12/16 05:58:19;;;;;;;15.55;7.50;;;5.90;99.90;;;;;;5098828;28;20631;-58
2021/12/16 06:00:49;;;;;;;16.83;8.63;;;6.00;99.90;;;;;;5098877;28;20568;-58
2021/12/16 06:03:16;;;;;;;15.43;8.32;;;5.90;99.90;;;;;;5098440;28;20508;-57
2021/12/16 06:05:43;;;;;;;13.32;8.07;;;5.90;99.90;;;;;;5099120;28;20107;-57
2021/12/16 06:08:10;;;;;;;14.73;7.60;;;5.90;99.90;;;;;;5098436;28;20044;-57
2021/12/16 06:13:24;;;;;;;19.30;8.70;;;6.00;99.90;;;;;;5098152;28;20044;-57
2021/12/16 06:26:59;;;;;;;18.00;10.65;;;6.10;99.90;;;;;;5096829;28;20515;-57
2021/12/16 06:29:24;;;;;;;20.65;8.98;;;6.00;99.90;;;;;;5098306;28;20048;-57
2021/12/16 06:31:51;;;;;;;17.15;8.02;;;6.10;99.90;;;;;;5098283;28;20105;-58
2021/12/16 06:34:16;;;;;;;21.95;9.18;;;6.10;99.90;;;;;;5098035;28;20103;-58
2021/12/16 06:36:42;;;;;;;18.95;8.90;;;6.10;99.90;;;;;;5098248;28;20048;-57
2021/12/16 06:39:08;;;;;;;20.13;8.93;;;6.10;99.90;;;;;;5096726;28;20074;-57
2021/12/16 06:41:36;;;;;;;18.63;9.20;;;6.10;99.90;;;;;;5098214;28;20052;-58
2021/12/16 06:44:16;;;;;;;19.38;8.93;;;6.10;99.90;;;;;;5098515;28;20088;-58
2021/12/16 06:46:44;;;;;;;18.85;8.25;;;6.20;99.90;;;;;;5099221;28;20559;-58
2021/12/16 06:49:12;;;;;;;23.30;9.10;;;6.20;99.90;;;;;;5102700;28;20485;-58
2021/12/16 06:51:47;;;;;;;20.30;8.80;;;6.10;99.90;;;;;;5088539;28;20048;-58
2021/12/16 06:54:21;;;;;;;19.77;8.40;;;6.10;99.90;;;;;;5081972;28;20603;-57
2021/12/16 06:59:26;;;;;;;20.25;9.43;;;6.10;99.90;;;;;;5081924;28;20047;-57
2021/12/16 07:02:02;;;;;;;20.35;8.57;;;6.10;99.90;;;;;;5082083;28;20048;-57
2021/12/16 07:04:29;;;;;;;19.63;9.32;;;6.00;99.90;;;;;;5081549;28;20743;-58
2021/12/16 07:06:55;;;;;;;19.02;8.75;;;6.10;99.90;;;;;;5081841;28;20076;-59
2021/12/16 07:09:21;;;;;;;20.85;9.63;;;6.10;99.90;;;;;;5081945;28;20044;-57
2021/12/16 07:11:52;;;;;;;19.08;9.30;;;6.10;99.90;;;;;;5081566;28;20559;-58
2021/12/16 07:14:23;;;;;;;20.13;9.10;;;6.00;99.90;;;;;;5081770;28;20524;-57
2021/12/16 07:16:52;;;;;;;23.20;9.48;;;6.10;99.90;;;;;;5081385;28;20055;-59
2021/12/16 07:19:18;;;;;;;20.15;9.75;;;6.00;99.90;;;;;;5081644;28;20049;-58
2021/12/16 07:21:45;;;;;;;19.77;8.85;;;6.10;99.90;;;;;;5080847;28;20052;-58
2021/12/16 07:24:16;;;;;;;21.52;9.43;;;6.00;99.90;;;;;;5081771;28;20102;-58
2021/12/16 07:26:42;;;;;;;21.52;9.80;;;6.10;99.90;;;;;;5081656;28;20048;-59
2021/12/16 07:29:08;;;;;;;20.42;9.68;;;6.20;99.90;;;;;;5081237;28;20044;-59
2021/12/16 07:31:36;;;;;;;21.58;10.45;;;6.20;99.90;;;;;;5081545;28;20040;-58
2021/12/16 07:34:02;;;;;;;19.17;9.75;;;6.20;99.90;;;;;;5063312;28;20127;-58
2021/12/16 07:36:30;;;;;;;20.60;9.93;;;6.20;99.90;;;;;;5081271;28;20068;-58
2021/12/16 07:38:56;;;;;;;19.17;9.55;;;6.10;99.90;;;;;;5080679;28;20059;-59
2021/12/16 07:41:25;;;;;;;24.15;9.63;;;6.10;99.90;;;;;;5081073;28;20563;-59
2021/12/16 07:46:22;;;;;;;24.80;11.27;;;6.10;99.90;;;;;;5081460;28;20081;-58
2021/12/16 07:48:48;;;;;;;22.17;10.15;;;6.20;99.90;;;;;;5081698;28;20045;-59
2021/12/16 07:51:13;;;;;;;18.77;10.10;;;6.10;99.90;;;;;;5090904;28;20170;-58
2021/12/16 07:53:40;;;;;;;19.05;9.80;;;6.10;99.90;;;;;;5101548;28;20032;-58
2021/12/16 07:56:07;;;;;;;21.50;10.23;;;6.10;99.90;;;;;;5099877;28;20656;-58
2021/12/16 07:58:33;;;;;;;26.80;10.77;;;6.10;99.90;;;;;;5100921;28;20051;-58
2021/12/16 08:01:00;;;;;;;19.25;10.63;;;6.20;99.90;;;;;;5100325;28;20048;-58
2021/12/16 08:03:34;;;;;;;18.05;10.48;;;6.10;99.90;;;;;;5101195;28;20028;-57
2021/12/16 08:06:00;;;;;;;19.35;9.40;;;6.20;99.90;;;;;;5101758;28;20047;-57
2021/12/16 08:08:26;;;;;;;22.15;10.45;;;6.20;99.90;;;;;;5099592;28;20100;-58
2021/12/16 08:10:54;;;;;;;21.08;11.20;;;6.20;99.90;;;;;;5101555;28;20044;-58
2021/12/16 08:13:20;;;;;;;18.85;10.20;;;6.20;99.90;;;;;;5100737;28;20050;-59
2021/12/16 08:15:46;;;;;;;19.77;10.68;;;6.20;99.90;;;;;;5101307;28;20044;-59
2021/12/16 08:18:12;;;;;;;28.90;11.32;;;6.20;99.90;;;;;;5101568;28;20403;-59
2021/12/16 08:20:40;;;;;;;19.98;10.32;;;6.20;99.90;;;;;;5101095;28;20044;-59
2021/12/16 08:23:06;;;;;;;23.73;10.90;;;6.20;99.90;;;;;;5100121;28;20434;-58
2021/12/16 08:25:34;;;;;;;20.20;10.40;;;6.20;99.90;;;;;;5100735;28;20455;-58
2021/12/16 08:28:03;;;;;;;19.60;10.60;;;6.30;99.90;;;;;;5101026;28;20040;-59
2021/12/16 08:30:31;;;;;;;21.65;11.00;;;6.20;99.90;;;;;;5100746;28;20072;-59
2021/12/16 08:32:59;;;;;;;31.08;12.77;;;6.30;99.90;;;;;;5099549;28;20040;-58
2021/12/16 08:35:26;;;;;;;22.98;11.27;;;6.30;99.90;;;;;;5101155;28;20032;-58
2021/12/16 08:37:52;;;;;;;22.95;11.65;;;6.30;99.90;;;;;;5098903;28;20036;-59
2021/12/16 08:40:21;;;;;;;21.75;11.43;;;6.30;99.90;;;;;;5100899;28;20032;-59
2021/12/16 08:42:47;;;;;;;19.15;10.93;;;6.30;99.90;;;;;;5098575;28;20055;-59
2021/12/16 08:45:18;;;;;;;19.55;11.38;;;6.30;99.90;;;;;;5100737;28;20040;-58
2021/12/16 08:47:45;;;;;;;19.30;10.95;;;6.40;99.90;;;;;;5100631;28;20055;-58
2021/12/16 08:50:14;;;;;;;22.95;11.30;;;6.40;99.90;;;;;;5099055;28;20044;-58
2021/12/16 08:52:40;;;;;;;28.05;12.30;;;6.40;99.90;;;;;;5080722;28;20040;-58
2021/12/16 08:55:07;;;;;;;22.88;11.73;;;6.40;99.90;;;;;;5079598;28;20062;-58
2021/12/16 08:57:33;;;;;;;22.10;11.60;;;6.50;99.90;;;;;;5080078;28;20049;-58
2021/12/16 08:59:59;;;;;;;28.30;12.85;;;6.50;99.90;;;;;;5079420;28;20099;-59
2021/12/16 09:02:25;;;;;;;26.90;12.27;;;6.50;99.90;;;;;;5079933;28;20053;-58
2021/12/16 09:04:52;;;;;;;28.38;12.18;;;6.50;99.90;;;;;;5079703;28;20044;-58
2021/12/16 09:07:18;;;;;;;32.00;12.93;;;6.60;99.90;;;;;;5079784;28;20040;-58
2021/12/16 09:09:45;;;;;;;25.52;12.82;;;6.60;99.90;;;;;;5079421;28;20123;-58
2021/12/16 09:12:48;;;;;;;28.15;13.93;;;6.60;99.90;;;;;;5078167;28;20106;-59
2021/12/16 09:15:08;;;;;;;30.98;13.80;;;6.60;99.90;;;;;;5079751;28;20517;-58
2021/12/16 09:17:35;;;;;;;28.80;13.05;;;6.60;99.90;;;;;;5079289;28;20067;-58
2021/12/16 09:20:01;;;;;;;29.85;12.90;;;6.70;99.90;;;;;;5078195;28;20049;-58
2021/12/16 09:22:29;;;;;;;26.67;12.95;;;6.70;99.90;;;;;;5078355;28;20853;-59
2021/12/16 09:24:56;;;;;;;36.95;14.73;;;6.70;99.90;;;;;;5079436;28;20782;-59
2021/12/16 09:27:24;;;;;;;29.88;13.90;;;6.70;99.90;;;;;;5078380;28;20048;-58
2021/12/16 09:29:50;;;;;;;31.08;13.93;;;6.70;99.90;;;;;;5079106;28;20105;-58
2021/12/16 09:32:16;;;;;;;36.90;15.13;;;6.80;99.90;;;;;;5079486;28;20060;-59
2021/12/16 09:34:45;;;;;;;47.28;18.05;;;6.80;99.90;;;;;;5079052;28;20493;-58
2021/12/16 09:37:10;;;;;;;45.03;17.90;;;6.80;99.90;;;;;;5079276;28;20040;-59
2021/12/16 09:39:37;;;;;;;48.70;17.38;;;6.90;99.90;;;;;;5079344;28;20044;-59
2021/12/16 09:42:06;;;;;;;46.45;17.15;;;6.90;99.90;;;;;;5078971;28;20082;-58
2021/12/16 09:44:32;;;;;;;35.33;16.65;;;6.90;99.90;;;;;;5079192;28;20515;-59
2021/12/16 09:47:00;;;;;;;63.45;17.23;;;7.00;99.90;;;;;;5078749;28;20466;-59
2021/12/16 09:49:27;;;;;;;46.55;17.48;;;7.00;99.90;;;;;;5077780;28;20075;-59
2021/12/16 09:51:55;;;;;;;61.70;17.63;;;7.00;99.90;;;;;;5092718;28;20501;-59
2021/12/16 09:54:25;;;;;;;56.33;16.55;;;7.10;99.90;;;;;;5099187;28;20048;-59
2021/12/16 09:56:52;;;;;;;72.07;17.08;;;7.10;99.90;;;;;;5099707;28;20381;-59
2021/12/16 09:59:20;;;;;;;57.30;16.38;;;7.10;99.90;;;;;;5098675;28;20048;-59
2021/12/16 10:01:49;;;;;;;65.72;15.50;;;7.20;99.90;;;;;;5099235;28;20451;-59
2021/12/16 10:04:20;;;;;;;83.53;16.48;;;7.20;99.90;;;;;;5098483;28;20044;-58
2021/12/16 10:06:49;;;;;;;75.07;17.17;;;7.20;99.90;;;;;;5099188;28;20443;-58
2021/12/16 10:09:15;;;;;;;74.40;16.15;;;7.20;99.90;;;;;;5098962;28;20063;-58
2021/12/16 10:11:45;;;;;;;146.27;18.77;;;7.30;99.90;;;;;;5098795;28;20099;-59
2021/12/16 10:19:25;;;;;;;101.35;16.17;;;7.20;99.90;;;;;;5098934;28;20056;-59
2021/12/16 10:21:53;;;;;;;51.22;16.45;;;7.20;99.90;;;;;;5096816;28;20107;-59
2021/12/16 10:24:23;;;;;;;59.88;15.15;;;7.30;99.90;;;;;;5098825;28;20044;-56
2021/12/16 10:27:24;;;;;;;95.43;16.38;;;7.30;99.90;;;;;;5098008;28;20047;-59
2021/12/16 10:29:58;;;;;;;102.32;16.90;;;7.40;99.90;;;;;;5087224;28;20528;-58
2021/12/16 10:32:42;;;;;;;100.57;17.02;;;7.40;99.90;;;;;;5098662;28;20055;-59
2021/12/16 10:35:10;;;;;;;77.80;16.10;;;7.40;99.90;;;;;;5098708;28;20377;-58
2021/12/16 10:37:39;;;;;;;113.93;17.65;;;7.50;99.90;;;;;;5098284;28;20051;-58
2021/12/16 10:40:27;;;;;;;132.10;17.65;;;7.50;99.90;;;;;;5098766;28;20048;-58
2021/12/16 10:42:54;;;;;;;126.78;17.27;;;7.50;99.90;;;;;;5098270;28;20048;-59
2021/12/16 10:45:35;;;;;;;98.90;15.10;;;7.50;99.90;;;;;;5098597;28;20044;-58
2021/12/16 10:48:10;;;;;;;74.18;14.30;;;7.50;99.90;;;;;;5098536;28;20072;-58
2021/12/16 10:51:03;;;;;;;97.63;16.35;;;7.50;99.90;;;;;;5093409;28;20059;-58
2021/12/16 10:53:47;;;;;;;49.40;13.05;;;7.50;99.90;;;;;;5076805;28;20051;-59
2021/12/16 10:56:14;;;;;;;58.25;13.48;;;7.50;99.90;;;;;;5077878;28;20462;-58
2021/12/16 10:58:57;;;;;;;68.93;13.02;;;7.60;99.90;;;;;;5077937;28;20082;-59
2021/12/16 11:01:38;;;;;;;53.05;13.70;;;7.60;99.90;;;;;;5078172;28;20446;-57
2021/12/16 11:04:09;;;;;;;46.67;14.30;;;7.60;99.90;;;;;;5077602;28;20048;-59
2021/12/16 11:06:46;;;;;;;70.60;14.77;;;7.70;99.90;;;;;;5078024;28;20041;-58
2021/12/16 11:09:39;;;;;;;78.18;14.32;;;7.70;99.90;;;;;;5078020;28;20513;-58
2021/12/16 11:12:29;;;;;;;49.72;12.77;;;7.80;99.90;;;;;;5077501;28;20124;-58
2021/12/16 11:15:30;;;;;;;75.88;14.73;;;7.80;99.90;;;;;;5078005;28;20041;-59
2021/12/16 11:18:02;;;;;;;59.35;14.57;;;7.80;99.90;;;;;;5034566;28;20070;-59
2021/12/16 11:20:30;;;;;;;72.13;13.95;;;7.90;99.90;;;;;;5077640;28;20125;-59
2021/12/16 11:23:24;;;;;;;73.80;15.50;;;7.80;99.90;;;;;;5078096;28;20100;-58
2021/12/16 11:25:52;;;;;;;58.58;14.00;;;7.80;99.90;;;;;;5077238;28;20131;-59
2021/12/16 11:28:31;;;;;;;63.17;13.15;;;7.80;99.90;;;;;;5077775;28;20135;-59
2021/12/16 11:31:03;;;;;;;119.22;15.80;;;7.80;99.90;;;;;;5077955;28;20055;-58
2021/12/16 11:33:42;;;;;;;80.70;13.80;;;7.80;99.90;;;;;;5079812;28;20036;-58
2021/12/16 11:36:10;;;;;;;70.68;15.13;;;7.70;99.90;;;;;;5079844;28;20055;-58
2021/12/16 11:38:49;;;;;;;54.42;13.75;;;7.80;99.90;;;;;;5080501;28;20048;-59
2021/12/16 11:41:31;;;;;;;80.85;14.85;;;7.90;99.90;;;;;;5080904;28;20049;-58
2021/12/16 11:44:09;;;;;;;83.38;14.45;;;7.90;99.90;;;;;;5081184;28;20045;-59
2021/12/16 11:46:37;;;;;;;77.28;13.15;;;7.90;99.90;;;;;;5080554;28;20044;-58
2021/12/16 11:49:23;;;;;;;83.25;12.68;;;7.90;99.90;;;;;;5081318;28;20608;-60
2021/12/16 11:52:01;;;;;;;67.45;12.43;;;8.00;99.90;;;;;;5095540;28;20097;-59
2021/12/16 11:54:35;;;;;;;54.42;12.57;;;8.00;99.90;;;;;;5101160;28;20110;-59
2021/12/16 11:57:42;;;;;;;60.65;14.10;;;8.10;99.90;;;;;;5101751;28;20044;-59
2021/12/16 12:00:15;;;;;;;43.30;14.00;;;8.10;99.90;;;;;;5070019;28;20063;-59
2021/12/16 12:02:46;;;;;;;94.18;14.52;;;8.20;99.90;;;;;;5101139;28;20502;-58
2021/12/16 12:05:32;;;;;;;51.72;13.80;;;8.10;99.90;;;;;;5101141;28;20491;-58
2021/12/16 12:08:26;;;;;;;64.68;14.25;;;8.10;99.90;;;;;;5100396;28;20048;-58
2021/12/16 12:11:00;;;;;;;96.82;17.27;;;8.20;99.90;;;;;;5101064;28;20059;-58
2021/12/16 12:13:44;;;;;;;62.92;14.00;;;8.20;99.90;;;;;;5100375;28;20032;-58
2021/12/16 12:16:12;;;;;;;96.82;16.38;;;8.10;99.90;;;;;;5100450;28;20044;-58
2021/12/16 12:18:45;;;;;;;63.13;14.40;;;8.20;99.90;;;;;;5101257;28;20044;-59
2021/12/16 12:21:25;;;;;;;103.25;16.92;;;8.20;99.90;;;;;;5100445;28;20044;-58
2021/12/16 12:24:17;;;;;;;88.90;16.25;;;8.10;99.90;;;;;;5099526;28;20048;-58
2021/12/16 12:26:53;;;;;;;39.70;14.37;;;8.20;99.90;;;;;;5093968;28;20101;-58
2021/12/16 12:29:32;;;;;;;62.53;14.35;;;8.30;99.90;;;;;;5098698;28;20888;-58
2021/12/16 12:32:04;;;;;;;76.28;15.52;;;8.20;99.90;;;;;;5099256;28;20058;-58
2021/12/16 12:34:32;;;;;;;62.85;14.07;;;8.20;99.90;;;;;;5098604;28;20059;-59
2021/12/16 12:37:02;;;;;;;81.20;15.27;;;8.30;99.90;;;;;;5100211;28;20128;-58
2021/12/16 12:39:33;;;;;;;64.75;15.13;;;8.30;99.90;;;;;;5099016;28;20093;-58
2021/12/16 12:41:58;;;;;;;56.10;14.60;;;8.30;99.90;;;;;;5098477;28;20051;-58
2021/12/16 12:44:25;;;;;;;54.45;14.20;;;8.40;99.90;;;;;;5100244;28;20130;-58
2021/12/16 12:46:52;;;;;;;54.20;14.98;;;8.30;99.90;;;;;;5099996;28;20037;-58
2021/12/16 12:49:25;;;;;;;61.75;14.70;;;8.40;99.90;;;;;;5100315;28;20048;-58
2021/12/16 12:52:01;;;;;;;104.20;17.35;;;8.40;99.90;;;;;;5084720;28;20055;-59
2021/12/16 12:54:31;;;;;;;68.22;16.05;;;8.40;99.90;;;;;;5078036;28;20098;-58
2021/12/16 12:57:18;;;;;;;118.55;18.75;;;8.40;99.90;;;;;;5078617;28;20420;-58
2021/12/16 12:59:44;;;;;;;53.78;14.70;;;8.40;99.90;;;;;;5079590;28;20461;-59
2021/12/16 13:02:20;;;;;;;55.05;15.55;;;8.40;99.90;;;;;;5078336;28;20542;-58
2021/12/16 13:04:53;;;;;;;67.63;16.05;;;8.50;99.90;;;;;;5079402;28;20056;-59
2021/12/16 13:07:34;;;;;;;53.58;15.32;;;8.50;99.90;;;;;;5079393;28;20051;-57
2021/12/16 13:10:23;;;;;;;54.53;15.95;;;8.50;99.90;;;;;;5079784;28;20690;-58
2021/12/16 13:12:59;;;;;;;60.90;16.27;;;8.50;99.90;;;;;;5078898;28;20063;-59
2021/12/16 13:15:36;;;;;;;60.05;17.52;;;8.60;99.90;;;;;;5079077;28;20500;-58
2021/12/16 13:24:29;;;;;;;56.92;15.88;;;8.50;99.90;;;;;;5079027;28;20091;-58
2021/12/16 13:26:51;;;;;;;57.42;15.13;;;8.50;99.90;;;;;;5078586;28;20048;-58
2021/12/16 13:29:35;;;;;;;43.05;14.55;;;8.50;99.90;;;;;;5078218;28;20523;-59
2021/12/16 13:32:24;;;;;;;50.35;15.80;;;8.60;99.90;;;;;;5078790;28;20055;-58
2021/12/16 13:35:21;;;;;;;44.25;14.35;;;8.60;99.90;;;;;;5078854;28;20473;-59
2021/12/16 13:37:49;;;;;;;44.88;13.93;;;8.60;99.90;;;;;;5076907;28;20090;-58
2021/12/16 13:40:14;;;;;;;48.42;14.63;;;8.60;99.90;;;;;;5079185;28;20068;-58
2021/12/16 13:42:55;;;;;;;46.97;13.55;;;8.60;99.90;;;;;;5078001;28;20040;-58
2021/12/16 13:45:53;;;;;;;49.45;14.48;;;8.60;99.90;;;;;;5078919;28;20041;-59
2021/12/16 14:02:57;;;;;;;41.58;13.00;;;8.60;99.90;;;;;;5078397;28;20053;-59
2021/12/16 14:06:11;;;;;;;46.38;11.60;;;8.50;99.90;;;;;;5077487;28;20041;-59
2021/12/16 14:08:48;;;;;;;38.40;11.27;;;8.50;99.90;;;;;;5077583;28;20051;-58
2021/12/16 14:18:03;;;;;;;42.63;10.40;;;8.40;99.90;;;;;;5077718;28;20521;-58
2021/12/16 14:23:24;;;;;;;39.25;11.35;;;8.40;99.90;;;;;;5078221;28;19920;-58
2021/12/16 14:50:27;;;;;;;27.85;11.27;;;8.20;99.90;;;;;;5070592;28;20040;-59
2021/12/16 14:52:54;;;;;;;37.78;12.10;;;8.20;99.90;;;;;;5067168;28;20059;-58
2021/12/16 14:55:22;;;;;;;41.83;13.00;;;8.20;99.90;;;;;;5039904;28;20490;-61
2021/12/16 14:57:53;;;;;;;45.92;12.80;;;8.10;99.90;;;;;;5067605;28;20059;-59
2021/12/16 15:00:30;;;;;;;37.07;13.10;;;8.20;99.90;;;;;;5066628;28;20040;-59
2021/12/16 15:03:04;;;;;;;38.88;13.30;;;8.10;99.90;;;;;;5067922;28;20147;-60
2021/12/16 15:05:40;;;;;;;31.77;11.60;;;8.10;99.90;;;;;;5068390;28;20088;-59
2021/12/16 15:08:10;;;;;;;36.25;12.95;;;8.10;99.90;;;;;;5069349;28;20047;-59
2021/12/16 15:10:37;;;;;;;40.63;12.23;;;8.20;99.90;;;;;;5072413;28;20036;-59
2021/12/16 15:13:10;;;;;;;49.83;14.63;;;8.10;99.90;;;;;;5071025;28;20121;-59
2021/12/16 15:15:46;;;;;;;39.65;13.65;;;8.10;99.90;;;;;;5072206;28;20045;-59
2021/12/16 15:45:27;;;;;;;35.03;13.35;;;8.30;99.90;;;;;;5072048;28;20595;-60
2021/12/16 15:47:58;;;;;;;40.92;14.68;;;8.20;99.90;;;;;;5072196;28;20049;-57
2021/12/16 15:50:49;;;;;;;64.53;17.15;;;8.30;99.90;;;;;;5070854;28;21966;-61
2021/12/16 15:53:22;;;;;;;84.03;17.13;;;8.20;99.90;;;;;;5065085;28;20067;-60
2021/12/16 15:55:55;;;;;;;68.80;16.42;;;8.20;99.90;;;;;;5071232;28;20053;-60
2021/12/16 15:58:25;;;;;;;47.80;15.82;;;8.30;99.90;;;;;;5069861;28;20052;-59
2021/12/16 16:01:03;;;;;;;56.70;16.25;;;8.30;99.90;;;;;;5071576;28;20044;-60
2021/12/16 16:03:29;;;;;;;52.05;16.73;;;8.30;99.90;;;;;;5070870;28;20122;-59
2021/12/16 16:06:01;;;;;;;62.05;16.98;;;8.20;99.90;;;;;;5071235;28;20487;-59
2021/12/16 16:08:31;;;;;;;63.47;17.08;;;8.30;99.90;;;;;;5070640;28;20045;-59
2021/12/16 16:11:01;;;;;;;54.25;17.70;;;8.20;99.90;;;;;;5069982;28;20032;-60
2021/12/16 16:13:31;;;;;;;67.47;18.45;;;8.30;99.90;;;;;;5070794;28;20049;-60
2021/12/16 16:16:01;;;;;;;50.63;17.42;;;8.30;99.90;;;;;;5070564;28;20420;-61
2021/12/16 16:20:58;;;;;;;60.50;18.27;;;8.20;99.90;;;;;;5070322;28;20048;-60
2021/12/16 16:23:25;;;;;;;64.28;19.23;;;8.30;99.90;;;;;;5070851;28;20037;-62
2021/12/16 16:25:52;;;;;;;82.10;19.50;;;8.30;99.90;;;;;;5068938;28;20040;-60
2021/12/16 16:28:20;;;;;;;73.65;21.48;;;8.30;99.90;;;;;;5070713;28;20048;-60
2021/12/16 16:30:46;;;;;;;64.97;19.35;;;8.30;99.90;;;;;;5069494;28;20036;-60
2021/12/16 16:33:16;;;;;;;62.08;19.45;;;8.30;99.90;;;;;;5070869;28;20044;-60
2021/12/16 16:35:56;;;;;;;60.58;17.05;;;8.30;99.90;;;;;;5071125;28;20439;-61
2021/12/16 16:38:32;;;;;;;55.55;17.13;;;8.30;99.90;;;;;;5068295;28;20052;-61
2021/12/16 16:41:01;;;;;;;55.45;19.05;;;8.30;99.90;;;;;;5068863;28;20057;-60
2021/12/16 16:43:35;;;;;;;50.78;16.58;;;8.30;99.90;;;;;;5068970;28;20691;-60
2021/12/16 16:46:07;;;;;;;54.47;17.98;;;8.30;99.90;;;;;;5070650;28;20448;-60
2021/12/16 16:48:48;;;;;;;;;;;8.30;99.90;;;;;;5071415;28;20040;-60
2021/12/16 16:51:44;;;;;;;57.15;16.98;;;8.30;99.90;;;;;;5052689;28;20678;-60
2021/12/16 16:54:28;;;;;;;74.68;17.20;;;8.30;99.90;;;;;;5070533;28;20047;-60
2021/12/16 16:56:59;;;;;;;73.32;17.70;;;8.30;99.90;;;;;;5060070;28;20048;-60
2021/12/16 16:59:30;;;;;;;64.63;16.88;;;8.30;99.90;;;;;;5069331;28;20078;-60
2021/12/16 17:02:01;;;;;;;59.63;17.13;;;8.30;99.90;;;;;;5069212;28;20044;-60
2021/12/16 17:04:30;;;;;;;58.97;15.48;;;8.30;99.90;;;;;;5068529;28;20048;-60
2021/12/16 17:06:57;;;;;;;54.60;16.15;;;8.30;99.90;;;;;;5070003;28;20801;-61